createdAt,value
2018-10-18T00:00:59.609Z,14.01
2018-10-18T00:01:59.638Z,13.96
2018-10-18T00:02:59.583Z,13.91
2018-10-18T00:03:59.577Z,13.94
2018-10-18T00:04:59.519Z,13.88
2018-10-18T00:05:59.579Z,13.87
2018-10-18T00:06:59.700Z,13.88
2018-10-18T00:07:59.566Z,13.93
2018-10-18T00:08:59.515Z,13.84
2018-10-18T00:09:59.505Z,13.86
2018-10-18T00:10:59.494Z,13.83
2018-10-18T00:11:59.466Z,13.86
2018-10-18T00:12:59.489Z,13.88
2018-10-18T00:13:59.519Z,13.88
2018-10-18T00:14:59.406Z,13.83
2018-10-18T00:15:59.439Z,13.86
2018-10-18T00:16:59.449Z,13.86
2018-10-18T00:17:59.468Z,13.83
2018-10-18T00:18:59.403Z,13.80
2018-10-18T00:19:59.446Z,13.76
2018-10-18T00:20:59.389Z,13.86
2018-10-18T00:21:59.394Z,13.72
2018-10-18T00:22:59.362Z,13.71
2018-10-18T00:23:59.392Z,13.72
2018-10-18T00:24:59.340Z,13.72
2018-10-18T00:25:59.374Z,13.68
2018-10-18T00:26:59.350Z,13.72
2018-10-18T00:27:59.263Z,13.73
2018-10-18T00:28:59.298Z,13.69
2018-10-18T00:29:59.315Z,13.71
2018-10-18T00:30:59.279Z,13.57
2018-10-18T00:31:59.343Z,13.65
2018-10-18T00:32:59.259Z,13.73
2018-10-18T00:33:59.210Z,13.63
2018-10-18T00:34:59.198Z,13.69
2018-10-18T00:35:59.238Z,13.61
2018-10-18T00:36:59.230Z,13.65
2018-10-18T00:37:59.227Z,13.72
2018-10-18T00:38:59.194Z,13.66
2018-10-18T00:39:59.176Z,13.65
2018-10-18T00:40:59.164Z,13.68
2018-10-18T00:41:59.184Z,13.68
2018-10-18T00:42:59.139Z,13.66
2018-10-18T00:43:59.190Z,13.72
2018-10-18T00:44:59.127Z,13.66
2018-10-18T00:45:59.151Z,13.72
2018-10-18T00:46:59.131Z,13.62
2018-10-18T00:47:59.139Z,13.62
2018-10-18T00:48:59.075Z,13.66
2018-10-18T00:49:59.039Z,13.62
2018-10-18T00:50:59.055Z,13.59
2018-10-18T00:51:59.070Z,13.63
2018-10-18T00:52:59.034Z,13.61
2018-10-18T00:53:59.041Z,13.61
2018-10-18T00:54:59.008Z,13.59
2018-10-18T00:55:59.008Z,13.57
2018-10-18T00:56:59.014Z,13.59
2018-10-18T00:57:58.979Z,13.57
2018-10-18T00:58:58.969Z,13.59
2018-10-18T00:59:58.980Z,13.65
2018-10-18T01:00:58.899Z,13.54
2018-10-18T01:01:58.968Z,13.50
2018-10-18T01:02:58.925Z,13.47
2018-10-18T01:03:58.909Z,13.46
2018-10-18T01:04:58.899Z,13.41
2018-10-18T01:05:58.904Z,13.41
2018-10-18T01:06:58.899Z,13.43
2018-10-18T01:07:58.882Z,13.48
2018-10-18T01:08:58.870Z,13.44
2018-10-18T01:09:58.842Z,13.43
2018-10-18T01:10:58.834Z,13.46
2018-10-18T01:11:58.895Z,13.47
2018-10-18T01:12:58.809Z,13.43
2018-10-18T01:13:58.837Z,13.38
2018-10-18T01:14:58.800Z,13.39
2018-10-18T01:15:58.776Z,13.46
2018-10-18T01:16:58.787Z,13.38
2018-10-18T01:17:58.770Z,13.41
2018-10-18T01:18:58.746Z,13.39
2018-10-18T01:19:58.787Z,13.44
2018-10-18T01:20:58.725Z,13.44
2018-10-18T01:21:58.685Z,13.36
2018-10-18T01:22:58.698Z,13.31
2018-10-18T01:23:58.697Z,13.50
2018-10-18T01:24:58.637Z,13.41
2018-10-18T01:25:58.705Z,13.44
2018-10-18T01:26:58.793Z,13.28
2018-10-18T01:27:58.605Z,13.36
2018-10-18T01:28:58.595Z,13.32
2018-10-18T01:29:58.651Z,13.36
2018-10-18T01:30:58.618Z,13.32
2018-10-18T01:31:58.649Z,13.35
2018-10-18T01:32:58.599Z,13.38
2018-10-18T01:33:58.579Z,13.39
2018-10-18T01:34:58.568Z,13.41
2018-10-18T01:35:58.616Z,13.32
2018-10-18T01:36:58.721Z,13.44
2018-10-18T01:37:58.538Z,13.51
2018-10-18T01:38:58.575Z,13.47
2018-10-18T01:39:58.470Z,13.50
2018-10-18T01:40:58.501Z,13.57
2018-10-18T01:41:58.493Z,13.59
2018-10-18T01:42:58.779Z,13.66
2018-10-18T01:43:58.445Z,13.59
2018-10-18T01:44:58.460Z,13.62
2018-10-18T01:45:58.449Z,13.59
2018-10-18T01:46:58.438Z,13.61
2018-10-18T01:47:58.472Z,13.68
2018-10-18T01:48:58.416Z,13.71
2018-10-18T01:49:58.408Z,13.75
2018-10-18T01:50:58.393Z,13.75
2018-10-18T01:51:58.381Z,13.81
2018-10-18T01:52:58.420Z,13.86
2018-10-18T01:53:58.394Z,13.88
2018-10-18T01:54:58.349Z,13.91
2018-10-18T01:55:58.379Z,13.91
2018-10-18T01:56:58.336Z,13.86
2018-10-18T01:57:58.339Z,13.98
2018-10-18T01:58:58.315Z,13.96
2018-10-18T01:59:58.325Z,14.02
2018-10-18T02:00:58.281Z,14.05
2018-10-18T02:01:58.322Z,13.98
2018-10-18T02:02:58.235Z,14.20
2018-10-18T02:03:58.247Z,14.09
2018-10-18T02:04:58.239Z,14.12
2018-10-18T02:05:58.274Z,14.19
2018-10-18T02:06:58.213Z,14.17
2018-10-18T02:07:58.229Z,14.23
2018-10-18T02:08:58.195Z,14.29
2018-10-18T02:09:58.184Z,14.31
2018-10-18T02:10:58.184Z,14.30
2018-10-18T02:11:58.166Z,14.31
2018-10-18T02:12:58.133Z,14.30
2018-10-18T02:13:58.103Z,14.34
2018-10-18T02:14:58.124Z,14.27
2018-10-18T02:15:58.129Z,14.31
2018-10-18T02:16:58.109Z,14.26
2018-10-18T02:17:58.156Z,14.30
2018-10-18T02:18:58.108Z,14.34
2018-10-18T02:19:58.071Z,14.34
2018-10-18T02:20:58.065Z,14.39
2018-10-18T02:21:58.062Z,14.27
2018-10-18T02:22:58.069Z,14.30
2018-10-18T02:23:58.084Z,14.35
2018-10-18T02:24:58.069Z,14.30
2018-10-18T02:25:57.973Z,14.45
2018-10-18T02:26:57.999Z,14.44
2018-10-18T02:27:58.008Z,14.41
2018-10-18T02:28:57.985Z,14.42
2018-10-18T02:29:57.993Z,14.46
2018-10-18T02:30:57.958Z,14.45
2018-10-18T02:31:57.907Z,14.52
2018-10-18T02:32:57.958Z,14.45
2018-10-18T02:33:57.925Z,14.44
2018-10-18T02:34:57.873Z,14.48
2018-10-18T02:35:58.001Z,14.48
2018-10-18T02:36:57.914Z,14.53
2018-10-18T02:37:57.885Z,14.48
2018-10-18T02:38:57.888Z,14.36
2018-10-18T02:39:57.857Z,14.54
2018-10-18T02:40:57.855Z,14.48
2018-10-18T02:41:57.870Z,14.59
2018-10-18T02:42:57.825Z,14.54
2018-10-18T02:43:57.840Z,14.54
2018-10-18T02:44:57.804Z,14.59
2018-10-18T02:45:57.794Z,14.61
2018-10-18T02:46:57.785Z,14.57
2018-10-18T02:47:57.780Z,14.52
2018-10-18T02:48:57.780Z,14.53
2018-10-18T02:49:57.755Z,14.57
2018-10-18T02:50:57.738Z,14.54
2018-10-18T02:51:57.731Z,14.64
2018-10-18T02:52:57.725Z,14.64
2018-10-18T02:53:57.735Z,14.61
2018-10-18T02:54:57.695Z,14.59
2018-10-18T02:55:57.689Z,14.53
2018-10-18T02:56:57.671Z,14.64
2018-10-18T02:57:57.667Z,14.56
2018-10-18T02:58:57.628Z,14.59
2018-10-18T02:59:57.645Z,14.57
2018-10-18T03:00:57.633Z,14.56
2018-10-18T03:01:57.625Z,14.59
2018-10-18T03:02:57.611Z,14.54
2018-10-18T03:03:57.617Z,14.54
2018-10-18T03:04:57.586Z,14.56
2018-10-18T03:05:57.625Z,14.53
2018-10-18T03:06:57.564Z,14.66
2018-10-18T03:07:57.568Z,14.57
2018-10-18T03:08:57.572Z,14.49
2018-10-18T03:09:57.531Z,14.56
2018-10-18T03:10:57.524Z,14.56
2018-10-18T03:11:57.523Z,14.54
2018-10-18T03:12:57.507Z,14.64
2018-10-18T03:13:57.520Z,14.59
2018-10-18T03:14:57.489Z,14.53
2018-10-18T03:15:57.517Z,14.54
2018-10-18T03:16:57.461Z,14.60
2018-10-18T03:17:57.499Z,14.57
2018-10-18T03:18:57.457Z,14.54
2018-10-18T03:19:57.388Z,14.60
2018-10-18T03:20:57.416Z,14.59
2018-10-18T03:21:57.406Z,14.59
2018-10-18T03:22:57.400Z,14.56
2018-10-18T03:23:57.409Z,14.64
2018-10-18T03:24:57.332Z,14.64
2018-10-18T03:25:57.360Z,14.63
2018-10-18T03:26:57.367Z,14.67
2018-10-18T03:27:57.350Z,14.57
2018-10-18T03:28:57.533Z,14.71
2018-10-18T03:29:57.369Z,14.63
2018-10-18T03:30:57.311Z,14.66
2018-10-18T03:31:57.297Z,14.67
2018-10-18T03:32:57.288Z,14.67
2018-10-18T03:33:57.364Z,14.61
2018-10-18T03:34:57.265Z,14.57
2018-10-18T03:35:57.372Z,14.56
2018-10-18T03:36:57.239Z,14.60
2018-10-18T03:37:57.237Z,14.54
2018-10-18T03:38:57.312Z,14.60
2018-10-18T03:39:57.211Z,14.64
2018-10-18T03:40:57.195Z,14.61
2018-10-18T03:41:57.244Z,14.59
2018-10-18T03:42:57.179Z,14.57
2018-10-18T03:43:57.192Z,14.67
2018-10-18T03:44:57.206Z,14.53
2018-10-18T03:45:57.137Z,14.66
2018-10-18T03:46:57.131Z,14.57
2018-10-18T03:47:57.133Z,14.60
2018-10-18T03:48:57.147Z,14.60
2018-10-18T03:49:57.112Z,14.57
2018-10-18T03:50:57.088Z,14.57
2018-10-18T03:51:57.078Z,14.63
2018-10-18T03:52:57.072Z,14.57
2018-10-18T03:53:57.084Z,14.60
2018-10-18T03:54:57.049Z,14.61
2018-10-18T03:55:57.041Z,14.59
2018-10-18T03:56:57.025Z,14.72
2018-10-18T03:57:57.010Z,14.54
2018-10-18T03:58:57.010Z,14.56
2018-10-18T03:59:57.024Z,14.63
2018-10-18T04:00:56.980Z,14.56
2018-10-18T04:01:56.982Z,14.59
2018-10-18T04:02:56.955Z,14.61
2018-10-18T04:03:56.950Z,14.61
2018-10-18T04:04:56.955Z,14.59
2018-10-18T04:05:56.970Z,14.60
2018-10-18T04:06:56.924Z,14.64
2018-10-18T04:07:56.923Z,14.60
2018-10-18T04:08:56.896Z,14.60
2018-10-18T04:09:56.908Z,14.71
2018-10-18T04:10:56.870Z,14.64
2018-10-18T04:11:56.876Z,14.64
2018-10-18T04:12:56.912Z,14.69
2018-10-18T04:13:56.839Z,14.71
2018-10-18T04:14:56.862Z,14.63
2018-10-18T04:15:56.820Z,14.67
2018-10-18T04:16:56.808Z,14.67
2018-10-18T04:17:56.827Z,14.69
2018-10-18T04:18:56.791Z,14.67
2018-10-18T04:19:56.795Z,14.71
2018-10-18T04:20:56.759Z,14.60
2018-10-18T04:21:56.720Z,14.54
2018-10-18T04:22:56.752Z,14.66
2018-10-18T04:23:56.774Z,14.64
2018-10-18T04:24:56.739Z,14.54
2018-10-18T04:25:56.712Z,14.64
2018-10-18T04:26:56.693Z,14.54
2018-10-18T04:27:56.656Z,14.53
2018-10-18T04:28:56.684Z,14.48
2018-10-18T04:29:56.740Z,14.52
2018-10-18T04:30:56.648Z,14.59
2018-10-18T04:31:56.605Z,14.52
2018-10-18T04:32:56.633Z,14.57
2018-10-18T04:33:56.627Z,14.60
2018-10-18T04:34:56.627Z,14.59
2018-10-18T04:35:56.660Z,14.59
2018-10-18T04:36:56.593Z,14.54
2018-10-18T04:37:56.610Z,14.59
2018-10-18T04:38:56.563Z,14.56
2018-10-18T04:39:56.577Z,14.59
2018-10-18T04:40:56.548Z,14.48
2018-10-18T04:41:56.540Z,14.45
2018-10-18T04:42:56.520Z,14.48
2018-10-18T04:43:56.520Z,14.41
2018-10-18T04:44:56.522Z,14.56
2018-10-18T04:45:56.493Z,14.59
2018-10-18T04:46:56.484Z,14.59
2018-10-18T04:47:56.539Z,14.64
2018-10-18T04:48:56.535Z,14.61
2018-10-18T04:49:56.459Z,14.59
2018-10-18T04:50:56.437Z,14.67
2018-10-18T04:51:56.421Z,14.72
2018-10-18T04:52:56.411Z,14.67
2018-10-18T04:53:56.403Z,14.72
2018-10-18T04:54:56.472Z,14.71
2018-10-18T04:55:56.387Z,14.79
2018-10-18T04:56:56.416Z,14.72
2018-10-18T04:57:56.356Z,14.69
2018-10-18T04:58:56.298Z,14.69
2018-10-18T04:59:56.360Z,14.67
2018-10-18T05:00:56.341Z,14.72
2018-10-18T05:01:56.313Z,14.71
2018-10-18T05:02:56.319Z,14.67
2018-10-18T05:03:56.294Z,14.69
2018-10-18T05:04:56.382Z,14.66
2018-10-18T05:05:56.272Z,14.69
2018-10-18T05:06:56.226Z,14.66
2018-10-18T05:07:56.247Z,14.72
2018-10-18T05:08:56.238Z,14.67
2018-10-18T05:09:56.254Z,14.67
2018-10-18T05:10:56.212Z,14.66
2018-10-18T05:11:56.208Z,14.72
2018-10-18T05:12:56.201Z,14.78
2018-10-18T05:13:56.189Z,14.74
2018-10-18T05:14:56.194Z,14.64
2018-10-18T05:15:56.161Z,14.72
2018-10-18T05:16:56.153Z,14.72
2018-10-18T05:17:56.165Z,14.75
2018-10-18T05:18:56.142Z,14.78
2018-10-18T05:19:56.125Z,14.71
2018-10-18T05:20:56.231Z,14.80
2018-10-18T05:21:56.097Z,14.83
2018-10-18T05:22:56.062Z,14.79
2018-10-18T05:23:56.080Z,14.78
2018-10-18T05:24:56.054Z,14.75
2018-10-18T05:25:56.051Z,14.83
2018-10-18T05:26:55.998Z,14.82
2018-10-18T05:27:56.047Z,14.86
2018-10-18T05:28:56.025Z,14.83
2018-10-18T05:29:56.008Z,14.90
2018-10-18T05:30:55.984Z,14.83
2018-10-18T05:31:55.992Z,14.86
2018-10-18T05:32:55.996Z,14.86
2018-10-18T05:33:55.980Z,14.87
2018-10-18T05:34:55.964Z,14.82
2018-10-18T05:35:55.900Z,14.86
2018-10-18T05:36:55.909Z,14.75
2018-10-18T05:37:55.936Z,14.90
2018-10-18T05:38:55.910Z,14.78
2018-10-18T05:39:55.896Z,14.82
2018-10-18T05:40:55.894Z,14.86
2018-10-18T05:41:55.838Z,14.94
2018-10-18T05:42:55.938Z,14.91
2018-10-18T05:43:55.855Z,14.90
2018-10-18T05:44:55.852Z,14.94
2018-10-18T05:45:55.807Z,14.93
2018-10-18T05:46:55.827Z,14.97
2018-10-18T05:47:55.839Z,14.93
2018-10-18T05:48:55.833Z,14.87
2018-10-18T05:49:55.767Z,14.91
2018-10-18T05:50:55.782Z,15.07
2018-10-18T05:51:55.771Z,15.00
2018-10-18T05:52:55.766Z,15.00
2018-10-18T05:53:55.890Z,15.05
2018-10-18T05:54:55.810Z,15.11
2018-10-18T05:55:55.735Z,15.07
2018-10-18T05:56:55.714Z,15.01
2018-10-18T05:57:55.705Z,15.11
2018-10-18T05:58:55.676Z,15.00
2018-10-18T05:59:55.681Z,15.00
2018-10-18T06:00:55.732Z,15.00
2018-10-18T06:01:55.680Z,15.12
2018-10-18T06:02:55.652Z,15.15
2018-10-18T06:03:55.664Z,15.13
2018-10-18T06:04:55.627Z,15.09
2018-10-18T06:05:55.624Z,15.19
2018-10-18T06:06:55.621Z,15.19
2018-10-18T06:07:55.599Z,15.23
2018-10-18T06:08:55.612Z,15.22
2018-10-18T06:09:55.606Z,15.16
2018-10-18T06:10:55.566Z,15.11
2018-10-18T06:11:55.560Z,15.20
2018-10-18T06:12:55.547Z,15.20
2018-10-18T06:13:55.565Z,15.25
2018-10-18T06:14:55.522Z,15.28
2018-10-18T06:15:55.507Z,15.28
2018-10-18T06:16:55.501Z,15.31
2018-10-18T06:17:55.447Z,15.30
2018-10-18T06:18:55.550Z,15.34
2018-10-18T06:19:55.423Z,15.34
2018-10-18T06:20:55.454Z,15.37
2018-10-18T06:21:55.445Z,15.41
2018-10-18T06:22:55.480Z,15.37
2018-10-18T06:23:55.576Z,15.37
2018-10-18T06:24:55.452Z,15.40
2018-10-18T06:25:55.397Z,15.38
2018-10-18T06:26:55.386Z,15.35
2018-10-18T06:27:55.374Z,15.34
2018-10-18T06:28:55.410Z,15.37
2018-10-18T06:29:55.355Z,15.37
2018-10-18T06:30:55.398Z,15.37
2018-10-18T06:31:55.331Z,15.35
2018-10-18T06:32:55.325Z,15.40
2018-10-18T06:33:55.436Z,15.43
2018-10-18T06:34:55.334Z,15.49
2018-10-18T06:35:55.285Z,15.51
2018-10-18T06:36:55.350Z,15.52
2018-10-18T06:37:55.279Z,15.37
2018-10-18T06:38:55.297Z,15.48
2018-10-18T06:39:55.271Z,15.56
2018-10-18T06:40:55.263Z,15.52
2018-10-18T06:41:55.220Z,15.59
2018-10-18T06:42:55.226Z,15.48
2018-10-18T06:43:55.237Z,15.60
2018-10-18T06:44:55.194Z,15.49
2018-10-18T06:45:55.185Z,15.62
2018-10-18T06:46:55.227Z,15.68
2018-10-18T06:47:55.337Z,15.64
2018-10-18T06:48:55.234Z,15.66
2018-10-18T06:49:55.148Z,15.60
2018-10-18T06:50:55.120Z,15.55
2018-10-18T06:51:55.108Z,15.53
2018-10-18T06:52:55.099Z,15.60
2018-10-18T06:53:55.133Z,15.60
2018-10-18T06:54:55.110Z,15.59
2018-10-18T06:55:55.068Z,15.66
2018-10-18T06:56:55.058Z,15.64
2018-10-18T06:57:55.045Z,15.56
2018-10-18T06:58:55.055Z,15.66
2018-10-18T06:59:55.074Z,15.62
2018-10-18T07:00:55.024Z,15.53
2018-10-18T07:01:55.010Z,15.53
2018-10-18T07:02:55.003Z,15.52
2018-10-18T07:03:55.012Z,15.52
2018-10-18T07:04:54.919Z,15.66
2018-10-18T07:05:54.970Z,15.53
2018-10-18T07:06:54.940Z,15.49
2018-10-18T07:07:54.885Z,15.59
2018-10-18T07:08:55.056Z,15.53
2018-10-18T07:09:54.909Z,15.44
2018-10-18T07:10:54.997Z,15.55
2018-10-18T07:11:54.922Z,15.53
2018-10-18T07:12:54.893Z,15.56
2018-10-18T07:13:54.893Z,15.53
2018-10-18T07:14:54.867Z,15.52
2018-10-18T07:15:54.854Z,15.55
2018-10-18T07:16:54.834Z,15.67
2018-10-18T07:17:54.841Z,15.67
2018-10-18T07:18:54.830Z,15.66
2018-10-18T07:19:54.802Z,15.70
2018-10-18T07:20:54.799Z,15.56
2018-10-18T07:21:54.783Z,15.64
2018-10-18T07:22:54.731Z,15.60
2018-10-18T07:23:54.782Z,15.64
2018-10-18T07:24:54.722Z,15.62
2018-10-18T07:25:54.734Z,15.68
2018-10-18T07:26:54.813Z,15.68
2018-10-18T07:27:54.708Z,15.70
2018-10-18T07:28:54.713Z,15.80
2018-10-18T07:29:54.734Z,15.77
2018-10-18T07:30:54.677Z,15.77
2018-10-18T07:31:54.666Z,15.85
2018-10-18T07:32:54.614Z,15.89
2018-10-18T07:33:54.624Z,15.88
2018-10-18T07:34:54.737Z,15.95
2018-10-18T07:35:54.668Z,16.01
2018-10-18T07:36:54.609Z,16.03
2018-10-18T07:37:54.613Z,16.06
2018-10-18T07:38:54.594Z,16.13
2018-10-18T07:39:54.595Z,16.18
2018-10-18T07:40:54.564Z,16.27
2018-10-18T07:41:54.555Z,16.34
2018-10-18T07:42:54.571Z,16.41
2018-10-18T07:43:54.537Z,16.44
2018-10-18T07:44:54.557Z,16.52
2018-10-18T07:45:54.509Z,16.48
2018-10-18T07:46:54.588Z,16.59
2018-10-18T07:47:54.458Z,16.67
2018-10-18T07:48:54.498Z,16.73
2018-10-18T07:49:54.491Z,16.78
2018-10-18T07:50:54.450Z,16.75
2018-10-18T07:51:54.445Z,16.78
2018-10-18T07:52:54.499Z,16.80
2018-10-18T07:53:54.443Z,16.80
2018-10-18T07:54:54.434Z,16.81
2018-10-18T07:55:54.416Z,16.81
2018-10-18T07:56:54.399Z,16.85
2018-10-18T07:57:54.378Z,16.91
2018-10-18T07:58:54.325Z,16.96
2018-10-18T07:59:54.391Z,16.99
2018-10-18T08:00:54.420Z,16.98
2018-10-18T08:01:54.332Z,17.07
2018-10-18T08:02:54.281Z,17.02
2018-10-18T08:03:54.319Z,17.06
2018-10-18T08:04:54.330Z,16.99
2018-10-18T08:05:54.292Z,16.98
2018-10-18T08:06:54.304Z,17.02
2018-10-18T08:07:54.272Z,16.96
2018-10-18T08:08:54.258Z,16.92
2018-10-18T08:09:54.286Z,16.85
2018-10-18T08:10:54.284Z,16.84
2018-10-18T08:11:54.227Z,16.82
2018-10-18T08:12:54.227Z,16.72
2018-10-18T08:13:54.209Z,16.72
2018-10-18T08:14:54.230Z,16.78
2018-10-18T08:15:54.216Z,16.72
2018-10-18T08:16:54.204Z,16.59
2018-10-18T08:17:54.159Z,16.55
2018-10-18T08:18:54.186Z,16.52
2018-10-18T08:19:54.101Z,16.48
2018-10-18T08:20:54.175Z,16.57
2018-10-18T08:21:54.107Z,16.57
2018-10-18T08:22:54.109Z,16.63
2018-10-18T08:23:54.100Z,16.63
2018-10-18T08:24:54.129Z,16.66
2018-10-18T08:25:54.199Z,16.66
2018-10-18T08:26:54.059Z,16.67
2018-10-18T08:27:54.047Z,16.72
2018-10-18T08:28:54.051Z,16.80
2018-10-18T08:29:53.985Z,16.84
2018-10-18T08:30:54.096Z,16.92
2018-10-18T08:31:54.076Z,16.95
2018-10-18T08:32:53.997Z,16.95
2018-10-18T08:33:53.942Z,16.92
2018-10-18T08:34:53.969Z,16.96
2018-10-18T08:35:54.022Z,16.90
2018-10-18T08:36:53.973Z,16.98
2018-10-18T08:37:54.113Z,16.98
2018-10-18T08:38:53.937Z,17.02
2018-10-18T08:39:53.927Z,17.07
2018-10-18T08:40:53.932Z,16.99
2018-10-18T08:41:53.906Z,16.88
2018-10-18T08:42:53.935Z,16.87
2018-10-18T08:43:54.003Z,16.92
2018-10-18T08:44:53.866Z,16.92
2018-10-18T08:45:53.829Z,17.05
2018-10-18T08:46:53.839Z,17.07
2018-10-18T08:47:53.831Z,17.12
2018-10-18T08:48:53.789Z,17.05
2018-10-18T08:49:53.910Z,17.18
2018-10-18T08:50:53.817Z,17.25
2018-10-18T08:51:53.784Z,17.17
2018-10-18T08:52:53.778Z,17.25
2018-10-18T08:53:53.763Z,17.32
2018-10-18T08:54:53.804Z,17.40
2018-10-18T08:55:53.763Z,17.32
2018-10-18T08:56:53.727Z,17.45
2018-10-18T08:57:53.728Z,17.46
2018-10-18T08:58:53.736Z,17.46
2018-10-18T08:59:53.700Z,17.51
2018-10-18T09:00:53.729Z,17.58
2018-10-18T09:01:53.631Z,17.60
2018-10-18T09:02:53.666Z,17.45
2018-10-18T09:03:53.657Z,17.36
2018-10-18T09:04:53.656Z,17.36
2018-10-18T09:05:53.658Z,17.42
2018-10-18T09:06:53.651Z,17.51
2018-10-18T09:07:53.616Z,17.43
2018-10-18T09:08:53.620Z,17.47
2018-10-18T09:09:53.593Z,17.45
2018-10-18T09:10:53.611Z,17.55
2018-10-18T09:11:53.586Z,17.38
2018-10-18T09:12:53.576Z,17.47
2018-10-18T09:13:53.567Z,17.45
2018-10-18T09:14:53.544Z,17.47
2018-10-18T09:15:53.578Z,17.38
2018-10-18T09:16:53.526Z,17.46
2018-10-18T09:17:53.507Z,17.49
2018-10-18T09:18:53.540Z,17.62
2018-10-18T09:19:53.484Z,17.58
2018-10-18T09:20:53.506Z,17.63
2018-10-18T09:21:53.465Z,17.62
2018-10-18T09:22:53.529Z,17.65
2018-10-18T09:23:53.655Z,17.71
2018-10-18T09:24:53.405Z,17.68
2018-10-18T09:25:53.450Z,17.63
2018-10-18T09:26:53.411Z,17.57
2018-10-18T09:27:53.402Z,17.68
2018-10-18T09:28:53.421Z,17.63
2018-10-18T09:29:53.377Z,17.58
2018-10-18T09:30:53.411Z,17.51
2018-10-18T09:31:53.359Z,17.63
2018-10-18T09:32:53.337Z,17.58
2018-10-18T09:33:53.351Z,17.63
2018-10-18T09:34:53.328Z,17.63
2018-10-18T09:35:53.341Z,17.55
2018-10-18T09:36:53.362Z,17.62
2018-10-18T09:37:53.297Z,17.46
2018-10-18T09:38:53.294Z,17.49
2018-10-18T09:39:53.275Z,17.39
2018-10-18T09:40:53.283Z,17.32
2018-10-18T09:41:53.267Z,17.32
2018-10-18T09:42:53.211Z,17.33
2018-10-18T09:43:53.239Z,17.33
2018-10-18T09:44:53.309Z,17.27
2018-10-18T09:45:53.205Z,17.35
2018-10-18T09:46:53.231Z,17.30
2018-10-18T09:47:53.187Z,17.35
2018-10-18T09:48:53.182Z,17.28
2018-10-18T09:49:53.175Z,17.39
2018-10-18T09:50:53.161Z,17.51
2018-10-18T09:51:53.165Z,17.51
2018-10-18T09:52:53.177Z,17.62
2018-10-18T09:53:53.125Z,17.60
2018-10-18T09:54:53.115Z,17.62
2018-10-18T09:55:53.159Z,17.60
2018-10-18T09:56:53.076Z,17.74
2018-10-18T09:57:53.080Z,17.77
2018-10-18T09:58:53.082Z,17.73
2018-10-18T09:59:53.059Z,17.79
2018-10-18T10:00:53.100Z,17.71
2018-10-18T10:01:53.061Z,17.81
2018-10-18T10:02:53.028Z,17.83
2018-10-18T10:03:53.022Z,17.84
2018-10-18T10:04:53.015Z,17.87
2018-10-18T10:05:53.001Z,17.91
2018-10-18T10:06:53.012Z,18.01
2018-10-18T10:07:52.984Z,18.07
2018-10-18T10:08:52.968Z,17.95
2018-10-18T10:09:52.958Z,18.13
2018-10-18T10:10:52.953Z,18.14
2018-10-18T10:11:52.983Z,18.26
2018-10-18T10:12:52.958Z,18.32
2018-10-18T10:13:52.922Z,18.29
2018-10-18T10:14:52.899Z,18.29
2018-10-18T10:15:52.959Z,18.28
2018-10-18T10:16:52.902Z,18.31
2018-10-18T10:17:52.942Z,18.19
2018-10-18T10:18:52.858Z,18.14
2018-10-18T10:19:52.849Z,18.13
2018-10-18T10:20:52.840Z,18.09
2018-10-18T10:21:52.918Z,18.17
2018-10-18T10:22:52.814Z,18.13
2018-10-18T10:23:52.819Z,18.07
2018-10-18T10:24:52.805Z,18.04
2018-10-18T10:25:52.742Z,18.13
2018-10-18T10:26:52.788Z,18.20
2018-10-18T10:27:52.757Z,18.26
2018-10-18T10:28:52.767Z,18.23
2018-10-18T10:29:52.738Z,18.23
2018-10-18T10:30:52.776Z,18.14
2018-10-18T10:31:52.759Z,18.07
2018-10-18T10:32:52.721Z,18.04
2018-10-18T10:33:52.709Z,18.10
2018-10-18T10:34:52.709Z,17.96
2018-10-18T10:35:52.677Z,18.04
2018-10-18T10:36:52.691Z,17.91
2018-10-18T10:37:52.648Z,17.92
2018-10-18T10:38:52.641Z,17.83
2018-10-18T10:39:52.634Z,17.87
2018-10-18T10:40:52.620Z,17.79
2018-10-18T10:41:52.664Z,17.81
2018-10-18T10:42:52.667Z,17.94
2018-10-18T10:43:52.590Z,17.80
2018-10-18T10:44:52.623Z,17.94
2018-10-18T10:45:52.609Z,17.87
2018-10-18T10:46:52.589Z,17.87
2018-10-18T10:47:52.545Z,17.94
2018-10-18T10:48:52.531Z,17.94
2018-10-18T10:49:52.566Z,17.91
2018-10-18T10:50:52.506Z,17.91
2018-10-18T10:51:52.565Z,17.83
2018-10-18T10:52:52.491Z,17.91
2018-10-18T10:53:52.537Z,17.77
2018-10-18T10:54:52.466Z,17.81
2018-10-18T10:55:52.463Z,17.79
2018-10-18T10:56:52.507Z,17.81
2018-10-18T10:57:52.476Z,17.71
2018-10-18T10:58:52.450Z,17.73
2018-10-18T10:59:52.429Z,17.68
2018-10-18T11:00:52.409Z,17.65
2018-10-18T11:01:52.463Z,17.80
2018-10-18T11:02:52.413Z,17.71
2018-10-18T11:03:52.364Z,17.83
2018-10-18T11:04:52.374Z,17.62
2018-10-18T11:05:52.361Z,17.71
2018-10-18T11:06:52.341Z,17.65
2018-10-18T11:07:52.389Z,17.73
2018-10-18T11:08:52.296Z,17.63
2018-10-18T11:09:52.316Z,17.73
2018-10-18T11:10:52.507Z,17.65
2018-10-18T11:11:52.310Z,17.73
2018-10-18T11:12:52.301Z,17.77
2018-10-18T11:13:52.301Z,17.80
2018-10-18T11:14:52.221Z,17.80
2018-10-18T11:15:52.260Z,17.79
2018-10-18T11:16:52.229Z,17.73
2018-10-18T11:17:52.283Z,17.73
2018-10-18T11:18:52.209Z,17.63
2018-10-18T11:19:52.207Z,17.63
2018-10-18T11:20:52.222Z,17.66
2018-10-18T11:21:52.178Z,17.66
2018-10-18T11:22:52.184Z,17.77
2018-10-18T11:23:52.192Z,17.83
2018-10-18T11:24:52.242Z,17.81
2018-10-18T11:25:52.186Z,17.91
2018-10-18T11:26:52.146Z,17.91
2018-10-18T11:27:52.128Z,18.04
2018-10-18T11:28:52.101Z,18.10
2018-10-18T11:29:52.236Z,18.10
2018-10-18T11:30:52.066Z,18.07
2018-10-18T11:31:52.072Z,18.13
2018-10-18T11:32:52.106Z,18.25
2018-10-18T11:33:52.050Z,18.25
2018-10-18T11:34:52.040Z,18.35
2018-10-18T11:35:52.030Z,18.46
2018-10-18T11:36:52.020Z,18.56
2018-10-18T11:37:52.052Z,18.56
2018-10-18T11:38:51.997Z,18.65
2018-10-18T11:39:51.954Z,18.66
2018-10-18T11:40:51.967Z,18.76
2018-10-18T11:41:51.971Z,18.74
2018-10-18T11:42:51.978Z,18.89
2018-10-18T11:43:51.953Z,18.86
2018-10-18T11:44:51.930Z,18.87
2018-10-18T11:45:51.913Z,18.87
2018-10-18T11:46:51.910Z,18.89
2018-10-18T11:47:51.954Z,18.89
2018-10-18T11:48:51.879Z,18.89
2018-10-18T11:49:51.878Z,19.06
2018-10-18T11:50:51.865Z,19.10
2018-10-18T11:51:51.915Z,19.05
2018-10-18T11:52:51.855Z,18.97
2018-10-18T11:53:51.845Z,18.97
2018-10-18T11:54:51.817Z,18.97
2018-10-18T11:55:51.850Z,19.06
2018-10-18T11:56:51.747Z,19.07
2018-10-18T11:57:51.815Z,19.05
2018-10-18T11:58:51.778Z,19.16
2018-10-18T11:59:51.757Z,19.28
2018-10-18T12:00:51.748Z,19.28
2018-10-18T12:01:51.774Z,19.20
2018-10-18T12:02:51.722Z,19.20
2018-10-18T12:03:51.731Z,19.23
2018-10-18T12:04:51.670Z,19.24
2018-10-18T12:05:51.689Z,19.28
2018-10-18T12:06:51.677Z,19.38
2018-10-18T12:07:51.679Z,19.38
2018-10-18T12:08:51.638Z,19.38
2018-10-18T12:09:51.647Z,19.39
2018-10-18T12:10:51.644Z,19.38
2018-10-18T12:11:51.636Z,19.38
2018-10-18T12:12:51.609Z,19.43
2018-10-18T12:13:51.760Z,19.50
2018-10-18T12:14:51.588Z,19.45
2018-10-18T12:15:51.581Z,19.55
2018-10-18T12:16:51.622Z,19.57
2018-10-18T12:17:51.568Z,19.53
2018-10-18T12:18:51.590Z,19.62
2018-10-18T12:19:51.494Z,19.57
2018-10-18T12:20:51.528Z,19.64
2018-10-18T12:21:51.533Z,19.65
2018-10-18T12:22:51.571Z,19.53
2018-10-18T12:23:51.575Z,19.45
2018-10-18T12:24:51.495Z,19.61
2018-10-18T12:25:51.475Z,19.45
2018-10-18T12:26:51.554Z,19.57
2018-10-18T12:27:51.467Z,19.53
2018-10-18T12:28:51.462Z,19.60
2018-10-18T12:29:51.388Z,19.57
2018-10-18T12:30:51.367Z,19.49
2018-10-18T12:31:51.406Z,19.46
2018-10-18T12:32:51.405Z,19.47
2018-10-18T12:33:51.430Z,19.49
2018-10-18T12:34:51.379Z,19.52
2018-10-18T12:35:51.361Z,19.39
2018-10-18T12:36:51.316Z,19.45
2018-10-18T12:37:51.336Z,19.39
2018-10-18T12:38:51.347Z,19.34
2018-10-18T12:39:51.314Z,19.42
2018-10-18T12:40:51.316Z,19.31
2018-10-18T12:41:51.304Z,19.39
2018-10-18T12:42:51.245Z,19.38
2018-10-18T12:43:51.293Z,19.39
2018-10-18T12:44:51.261Z,19.31
2018-10-18T12:45:51.248Z,19.40
2018-10-18T12:46:51.249Z,19.35
2018-10-18T12:47:51.237Z,19.35
2018-10-18T12:48:51.238Z,19.27
2018-10-18T12:49:51.204Z,19.24
2018-10-18T12:50:51.197Z,19.25
2018-10-18T12:51:51.184Z,19.32
2018-10-18T12:52:51.178Z,19.40